sensor_id;sensor_type;location;lat;lon;timestamp;P1;durP1;ratioP1;P2;durP2;ratioP2
55292;SDS011;41157;53.560;10.098;2024-03-02T00:00:06;20.87;;;10.00;;
55292;SDS011;41157;53.560;10.098;2024-03-02T00:02:39;19.83;;;10.07;;
55292;SDS011;41157;53.560;10.098;2024-03-02T00:05:06;21.60;;;10.60;;
55292;SDS011;41157;53.560;10.098;2024-03-02T00:07:34;21.33;;;11.33;;
55292;SDS011;41157;53.560;10.098;2024-03-02T00:10:02;23.77;;;11.53;;
55292;SDS011;41157;53.560;10.098;2024-03-02T00:12:35;23.57;;;12.20;;
55292;SDS011;41157;53.560;10.098;2024-03-02T00:15:03;24.17;;;11.53;;
55292;SDS011;41157;53.560;10.098;2024-03-02T00:17:31;20.70;;;11.03;;
55292;SDS011;41157;53.560;10.098;2024-03-02T00:19:58;22.07;;;12.20;;
55292;SDS011;41157;53.560;10.098;2024-03-02T00:22:27;23.60;;;12.63;;
55292;SDS011;41157;53.560;10.098;2024-03-02T00:24:54;28.73;;;13.60;;
55292;SDS011;41157;53.560;10.098;2024-03-02T00:27:23;25.70;;;12.73;;
55292;SDS011;41157;53.560;10.098;2024-03-02T00:29:50;25.70;;;14.27;;
55292;SDS011;41157;53.560;10.098;2024-03-02T00:32:17;28.07;;;13.87;;
55292;SDS011;41157;53.560;10.098;2024-03-02T00:34:44;27.33;;;14.90;;
55292;SDS011;41157;53.560;10.098;2024-03-02T00:37:11;27.93;;;14.63;;
55292;SDS011;41157;53.560;10.098;2024-03-02T00:39:38;27.30;;;15.13;;
55292;SDS011;41157;53.560;10.098;2024-03-02T00:42:05;31.73;;;15.40;;
55292;SDS011;41157;53.560;10.098;2024-03-02T00:44:34;37.17;;;16.53;;
55292;SDS011;41157;53.560;10.098;2024-03-02T00:47:02;28.13;;;15.40;;
55292;SDS011;41157;53.560;10.098;2024-03-02T00:49:29;33.30;;;15.77;;
55292;SDS011;41157;53.560;10.098;2024-03-02T00:51:56;30.47;;;15.60;;
55292;SDS011;41157;53.560;10.098;2024-03-02T00:54:25;31.87;;;16.17;;
55292;SDS011;41157;53.560;10.098;2024-03-02T00:56:53;27.70;;;15.27;;
55292;SDS011;41157;53.560;10.098;2024-03-02T00:59:21;27.03;;;15.77;;
55292;SDS011;41157;53.560;10.098;2024-03-02T01:01:49;31.27;;;15.23;;
55292;SDS011;41157;53.560;10.098;2024-03-02T01:04:17;35.57;;;15.73;;
55292;SDS011;41157;53.560;10.098;2024-03-02T01:06:44;29.67;;;15.83;;
55292;SDS011;41157;53.560;10.098;2024-03-02T01:09:11;27.47;;;15.73;;
55292;SDS011;41157;53.560;10.098;2024-03-02T01:11:38;30.53;;;15.80;;
55292;SDS011;41157;53.560;10.098;2024-03-02T01:14:05;33.63;;;15.60;;
55292;SDS011;41157;53.560;10.098;2024-03-02T01:16:32;31.27;;;16.47;;
55292;SDS011;41157;53.560;10.098;2024-03-02T01:19:00;31.57;;;16.77;;
55292;SDS011;41157;53.560;10.098;2024-03-02T01:21:27;34.67;;;16.13;;
55292;SDS011;41157;53.560;10.098;2024-03-02T01:23:54;31.80;;;16.27;;
55292;SDS011;41157;53.560;10.098;2024-03-02T01:26:21;32.90;;;16.73;;
55292;SDS011;41157;53.560;10.098;2024-03-02T01:28:48;30.83;;;16.63;;
55292;SDS011;41157;53.560;10.098;2024-03-02T01:31:15;34.77;;;17.30;;
55292;SDS011;41157;53.560;10.098;2024-03-02T01:33:42;29.70;;;16.93;;
55292;SDS011;41157;53.560;10.098;2024-03-02T01:36:11;32.70;;;17.93;;
55292;SDS011;41157;53.560;10.098;2024-03-02T01:38:38;38.00;;;18.03;;
55292;SDS011;41157;53.560;10.098;2024-03-02T01:41:05;35.77;;;17.13;;
55292;SDS011;41157;53.560;10.098;2024-03-02T01:43:32;32.17;;;17.20;;
55292;SDS011;41157;53.560;10.098;2024-03-02T01:45:59;30.93;;;16.93;;
55292;SDS011;41157;53.560;10.098;2024-03-02T01:48:26;33.90;;;16.93;;
55292;SDS011;41157;53.560;10.098;2024-03-02T01:50:53;34.67;;;17.27;;
55292;SDS011;41157;53.560;10.098;2024-03-02T01:53:21;31.13;;;16.80;;
55292;SDS011;41157;53.560;10.098;2024-03-02T01:55:49;34.60;;;17.83;;
55292;SDS011;41157;53.560;10.098;2024-03-02T01:58:16;29.67;;;16.07;;
55292;SDS011;41157;53.560;10.098;2024-03-02T02:00:43;31.37;;;16.83;;
55292;SDS011;41157;53.560;10.098;2024-03-02T02:03:11;38.37;;;17.23;;
55292;SDS011;41157;53.560;10.098;2024-03-02T02:05:38;34.00;;;17.30;;
55292;SDS011;41157;53.560;10.098;2024-03-02T02:08:05;33.53;;;17.93;;
55292;SDS011;41157;53.560;10.098;2024-03-02T02:10:34;30.73;;;16.37;;
55292;SDS011;41157;53.560;10.098;2024-03-02T02:13:01;35.60;;;17.23;;
55292;SDS011;41157;53.560;10.098;2024-03-02T02:15:29;33.03;;;17.70;;
55292;SDS011;41157;53.560;10.098;2024-03-02T02:17:56;30.17;;;16.33;;
55292;SDS011;41157;53.560;10.098;2024-03-02T02:20:23;31.53;;;17.30;;
55292;SDS011;41157;53.560;10.098;2024-03-02T02:22:58;35.03;;;18.20;;
55292;SDS011;41157;53.560;10.098;2024-03-02T02:25:26;33.33;;;17.90;;
55292;SDS011;41157;53.560;10.098;2024-03-02T02:27:53;37.87;;;18.03;;
55292;SDS011;41157;53.560;10.098;2024-03-02T02:30:20;28.93;;;15.73;;
55292;SDS011;41157;53.560;10.098;2024-03-02T02:32:48;35.30;;;16.53;;
55292;SDS011;41157;53.560;10.098;2024-03-02T02:35:15;28.57;;;16.30;;
55292;SDS011;41157;53.560;10.098;2024-03-02T02:37:42;29.20;;;15.97;;
55292;SDS011;41157;53.560;10.098;2024-03-02T02:40:11;31.70;;;16.67;;
55292;SDS011;41157;53.560;10.098;2024-03-02T02:42:38;32.77;;;16.77;;
55292;SDS011;41157;53.560;10.098;2024-03-02T02:45:06;35.70;;;17.23;;
55292;SDS011;41157;53.560;10.098;2024-03-02T02:47:33;32.63;;;16.23;;
55292;SDS011;41157;53.560;10.098;2024-03-02T02:50:01;30.00;;;16.27;;
55292;SDS011;41157;53.560;10.098;2024-03-02T02:52:30;29.87;;;16.13;;
55292;SDS011;41157;53.560;10.098;2024-03-02T02:54:59;29.73;;;15.43;;
55292;SDS011;41157;53.560;10.098;2024-03-02T02:57:27;30.93;;;16.10;;
55292;SDS011;41157;53.560;10.098;2024-03-02T02:59:56;31.93;;;16.03;;
55292;SDS011;41157;53.560;10.098;2024-03-02T03:02:23;31.93;;;16.33;;
55292;SDS011;41157;53.560;10.098;2024-03-02T03:04:50;35.73;;;15.57;;
55292;SDS011;41157;53.560;10.098;2024-03-02T03:07:17;29.03;;;15.40;;
55292;SDS011;41157;53.560;10.098;2024-03-02T03:09:44;31.43;;;16.03;;
55292;SDS011;41157;53.560;10.098;2024-03-02T03:12:11;30.93;;;16.60;;
55292;SDS011;41157;53.560;10.098;2024-03-02T03:14:40;29.50;;;16.50;;
55292;SDS011;41157;53.560;10.098;2024-03-02T03:17:07;33.80;;;16.07;;
55292;SDS011;41157;53.560;10.098;2024-03-02T03:19:34;29.30;;;15.87;;
55292;SDS011;41157;53.560;10.098;2024-03-02T03:22:02;29.77;;;15.97;;
55292;SDS011;41157;53.560;10.098;2024-03-02T03:24:29;31.57;;;17.03;;
55292;SDS011;41157;53.560;10.098;2024-03-02T03:26:57;36.00;;;16.50;;
55292;SDS011;41157;53.560;10.098;2024-03-02T03:29:24;29.77;;;15.90;;
55292;SDS011;41157;53.560;10.098;2024-03-02T03:31:53;27.77;;;15.67;;
55292;SDS011;41157;53.560;10.098;2024-03-02T03:34:20;32.73;;;16.80;;
55292;SDS011;41157;53.560;10.098;2024-03-02T03:36:47;33.10;;;16.50;;
55292;SDS011;41157;53.560;10.098;2024-03-02T03:39:14;32.00;;;16.17;;
55292;SDS011;41157;53.560;10.098;2024-03-02T03:41:41;28.27;;;16.27;;
55292;SDS011;41157;53.560;10.098;2024-03-02T03:44:08;31.30;;;15.03;;
55292;SDS011;41157;53.560;10.098;2024-03-02T03:46:35;32.90;;;17.73;;
55292;SDS011;41157;53.560;10.098;2024-03-02T03:49:03;32.47;;;16.57;;
55292;SDS011;41157;53.560;10.098;2024-03-02T03:51:30;27.80;;;14.20;;
55292;SDS011;41157;53.560;10.098;2024-03-02T03:53:57;32.03;;;16.70;;
55292;SDS011;41157;53.560;10.098;2024-03-02T03:56:24;28.50;;;15.27;;
55292;SDS011;41157;53.560;10.098;2024-03-02T03:58:51;29.63;;;16.50;;
55292;SDS011;41157;53.560;10.098;2024-03-02T04:01:18;32.03;;;15.10;;
55292;SDS011;41157;53.560;10.098;2024-03-02T04:03:47;25.63;;;14.57;;
55292;SDS011;41157;53.560;10.098;2024-03-02T04:06:15;31.70;;;14.30;;
55292;SDS011;41157;53.560;10.098;2024-03-02T04:08:42;28.33;;;15.17;;
55292;SDS011;41157;53.560;10.098;2024-03-02T04:11:09;28.00;;;15.03;;
55292;SDS011;41157;53.560;10.098;2024-03-02T04:13:36;24.73;;;14.50;;
55292;SDS011;41157;53.560;10.098;2024-03-02T04:16:04;24.97;;;14.43;;
55292;SDS011;41157;53.560;10.098;2024-03-02T04:18:31;27.97;;;14.10;;
55292;SDS011;41157;53.560;10.098;2024-03-02T04:20:58;27.20;;;14.73;;
55292;SDS011;41157;53.560;10.098;2024-03-02T04:23:26;27.37;;;13.93;;
55292;SDS011;41157;53.560;10.098;2024-03-02T04:25:53;27.83;;;14.60;;
55292;SDS011;41157;53.560;10.098;2024-03-02T04:28:20;30.27;;;15.43;;
55292;SDS011;41157;53.560;10.098;2024-03-02T04:30:47;27.97;;;14.00;;
55292;SDS011;41157;53.560;10.098;2024-03-02T04:33:14;27.87;;;15.83;;
55292;SDS011;41157;53.560;10.098;2024-03-02T04:35:41;27.93;;;14.40;;
55292;SDS011;41157;53.560;10.098;2024-03-02T04:38:08;25.37;;;14.23;;
55292;SDS011;41157;53.560;10.098;2024-03-02T04:40:37;24.77;;;13.90;;
55292;SDS011;41157;53.560;10.098;2024-03-02T04:43:04;25.43;;;15.37;;
55292;SDS011;41157;53.560;10.098;2024-03-02T04:45:31;26.47;;;14.73;;
55292;SDS011;41157;53.560;10.098;2024-03-02T04:47:58;24.00;;;13.47;;
55292;SDS011;41157;53.560;10.098;2024-03-02T04:50:25;22.93;;;13.83;;
55292;SDS011;41157;53.560;10.098;2024-03-02T04:52:52;24.07;;;13.83;;
55292;SDS011;41157;53.560;10.098;2024-03-02T04:55:19;26.87;;;13.40;;
55292;SDS011;41157;53.560;10.098;2024-03-02T04:58:11;24.40;;;14.47;;
55292;SDS011;41157;53.560;10.098;2024-03-02T05:00:38;25.00;;;14.20;;
55292;SDS011;41157;53.560;10.098;2024-03-02T05:03:07;24.57;;;14.17;;
55292;SDS011;41157;53.560;10.098;2024-03-02T05:05:34;22.87;;;12.70;;
55292;SDS011;41157;53.560;10.098;2024-03-02T05:08:03;28.50;;;14.30;;
55292;SDS011;41157;53.560;10.098;2024-03-02T05:10:31;28.47;;;14.53;;
55292;SDS011;41157;53.560;10.098;2024-03-02T05:12:58;26.73;;;13.60;;
55292;SDS011;41157;53.560;10.098;2024-03-02T05:15:26;23.43;;;13.67;;
55292;SDS011;41157;53.560;10.098;2024-03-02T05:17:52;27.10;;;14.80;;
55292;SDS011;41157;53.560;10.098;2024-03-02T05:20:21;25.87;;;14.43;;
55292;SDS011;41157;53.560;10.098;2024-03-02T05:22:48;25.77;;;13.73;;
55292;SDS011;41157;53.560;10.098;2024-03-02T05:25:15;23.33;;;13.37;;
55292;SDS011;41157;53.560;10.098;2024-03-02T05:27:42;23.57;;;14.13;;
55292;SDS011;41157;53.560;10.098;2024-03-02T05:30:10;26.77;;;14.87;;
55292;SDS011;41157;53.560;10.098;2024-03-02T05:32:38;31.23;;;15.17;;
55292;SDS011;41157;53.560;10.098;2024-03-02T05:35:06;28.00;;;14.53;;
55292;SDS011;41157;53.560;10.098;2024-03-02T05:37:33;31.73;;;15.27;;
55292;SDS011;41157;53.560;10.098;2024-03-02T05:40:00;30.23;;;14.60;;
55292;SDS011;41157;53.560;10.098;2024-03-02T05:42:28;28.93;;;14.77;;
55292;SDS011;41157;53.560;10.098;2024-03-02T05:44:55;25.47;;;13.50;;
55292;SDS011;41157;53.560;10.098;2024-03-02T05:47:22;26.13;;;13.40;;
55292;SDS011;41157;53.560;10.098;2024-03-02T05:49:50;24.83;;;13.63;;
55292;SDS011;41157;53.560;10.098;2024-03-02T05:52:17;24.60;;;13.00;;
55292;SDS011;41157;53.560;10.098;2024-03-02T05:54:45;26.00;;;13.80;;
55292;SDS011;41157;53.560;10.098;2024-03-02T05:57:13;24.03;;;13.10;;
55292;SDS011;41157;53.560;10.098;2024-03-02T05:59:57;25.60;;;13.13;;
55292;SDS011;41157;53.560;10.098;2024-03-02T06:02:24;23.37;;;12.80;;
55292;SDS011;41157;53.560;10.098;2024-03-02T06:04:54;24.13;;;13.77;;
55292;SDS011;41157;53.560;10.098;2024-03-02T06:07:21;23.67;;;13.40;;
55292;SDS011;41157;53.560;10.098;2024-03-02T06:09:48;24.87;;;13.00;;
55292;SDS011;41157;53.560;10.098;2024-03-02T06:12:17;24.77;;;12.57;;
55292;SDS011;41157;53.560;10.098;2024-03-02T06:14:44;26.00;;;13.67;;
55292;SDS011;41157;53.560;10.098;2024-03-02T06:17:11;27.70;;;13.43;;
55292;SDS011;41157;53.560;10.098;2024-03-02T06:19:38;31.33;;;13.57;;
55292;SDS011;41157;53.560;10.098;2024-03-02T06:22:07;27.07;;;14.40;;
55292;SDS011;41157;53.560;10.098;2024-03-02T06:24:35;23.97;;;12.50;;
55292;SDS011;41157;53.560;10.098;2024-03-02T06:27:02;22.00;;;12.47;;
55292;SDS011;41157;53.560;10.098;2024-03-02T06:29:32;23.17;;;13.47;;
55292;SDS011;41157;53.560;10.098;2024-03-02T06:31:59;24.87;;;13.30;;
55292;SDS011;41157;53.560;10.098;2024-03-02T06:34:26;23.57;;;13.13;;
55292;SDS011;41157;53.560;10.098;2024-03-02T06:36:53;24.20;;;13.43;;
55292;SDS011;41157;53.560;10.098;2024-03-02T06:39:22;22.93;;;13.07;;
55292;SDS011;41157;53.560;10.098;2024-03-02T06:41:49;21.83;;;12.80;;
55292;SDS011;41157;53.560;10.098;2024-03-02T06:44:16;24.07;;;13.00;;
55292;SDS011;41157;53.560;10.098;2024-03-02T06:46:43;23.10;;;13.30;;
55292;SDS011;41157;53.560;10.098;2024-03-02T06:49:10;21.40;;;13.00;;
55292;SDS011;41157;53.560;10.098;2024-03-02T06:51:37;26.53;;;13.43;;
55292;SDS011;41157;53.560;10.098;2024-03-02T06:54:04;22.17;;;12.70;;
55292;SDS011;41157;53.560;10.098;2024-03-02T06:56:32;19.40;;;12.53;;
55292;SDS011;41157;53.560;10.098;2024-03-02T06:58:59;23.83;;;13.17;;
55292;SDS011;41157;53.560;10.098;2024-03-02T07:01:26;25.67;;;13.33;;
55292;SDS011;41157;53.560;10.098;2024-03-02T07:03:53;28.03;;;13.67;;
55292;SDS011;41157;53.560;10.098;2024-03-02T07:06:20;21.20;;;12.70;;
55292;SDS011;41157;53.560;10.098;2024-03-02T07:08:47;22.00;;;13.33;;
55292;SDS011;41157;53.560;10.098;2024-03-02T07:11:14;24.90;;;12.47;;
55292;SDS011;41157;53.560;10.098;2024-03-02T07:13:43;27.30;;;13.00;;
55292;SDS011;41157;53.560;10.098;2024-03-02T07:16:10;19.80;;;12.13;;
55292;SDS011;41157;53.560;10.098;2024-03-02T07:18:52;22.83;;;12.23;;
55292;SDS011;41157;53.560;10.098;2024-03-02T07:21:21;22.10;;;13.67;;
55292;SDS011;41157;53.560;10.098;2024-03-02T07:23:48;26.13;;;14.10;;
55292;SDS011;41157;53.560;10.098;2024-03-02T07:26:15;23.27;;;13.60;;
55292;SDS011;41157;53.560;10.098;2024-03-02T07:28:44;25.13;;;13.43;;
55292;SDS011;41157;53.560;10.098;2024-03-02T07:31:12;23.50;;;12.57;;
55292;SDS011;41157;53.560;10.098;2024-03-02T07:33:40;23.93;;;12.27;;
55292;SDS011;41157;53.560;10.098;2024-03-02T07:36:07;25.90;;;12.60;;
55292;SDS011;41157;53.560;10.098;2024-03-02T07:38:34;21.27;;;13.43;;
55292;SDS011;41157;53.560;10.098;2024-03-02T07:41:01;22.10;;;12.07;;
55292;SDS011;41157;53.560;10.098;2024-03-02T07:43:29;21.80;;;13.03;;
55292;SDS011;41157;53.560;10.098;2024-03-02T07:45:59;26.10;;;13.13;;
55292;SDS011;41157;53.560;10.098;2024-03-02T07:48:28;21.20;;;13.13;;
55292;SDS011;41157;53.560;10.098;2024-03-02T07:50:55;27.17;;;13.60;;
55292;SDS011;41157;53.560;10.098;2024-03-02T07:53:22;24.00;;;13.33;;
55292;SDS011;41157;53.560;10.098;2024-03-02T07:55:49;22.20;;;12.83;;
55292;SDS011;41157;53.560;10.098;2024-03-02T07:58:16;24.13;;;13.00;;
55292;SDS011;41157;53.560;10.098;2024-03-02T08:00:44;30.30;;;13.67;;
55292;SDS011;41157;53.560;10.098;2024-03-02T08:03:13;25.20;;;12.67;;
55292;SDS011;41157;53.560;10.098;2024-03-02T08:05:40;29.37;;;13.60;;
55292;SDS011;41157;53.560;10.098;2024-03-02T08:08:07;27.60;;;13.73;;
55292;SDS011;41157;53.560;10.098;2024-03-02T08:10:34;27.97;;;14.07;;
55292;SDS011;41157;53.560;10.098;2024-03-02T08:13:01;21.37;;;13.00;;
55292;SDS011;41157;53.560;10.098;2024-03-02T08:15:28;21.50;;;13.07;;
55292;SDS011;41157;53.560;10.098;2024-03-02T08:17:55;20.57;;;12.57;;
55292;SDS011;41157;53.560;10.098;2024-03-02T08:20:24;28.70;;;14.00;;
55292;SDS011;41157;53.560;10.098;2024-03-02T08:22:51;22.70;;;12.67;;
55292;SDS011;41157;53.560;10.098;2024-03-02T08:25:20;21.30;;;12.17;;
55292;SDS011;41157;53.560;10.098;2024-03-02T08:27:47;22.73;;;12.90;;
55292;SDS011;41157;53.560;10.098;2024-03-02T08:30:14;23.57;;;13.37;;
55292;SDS011;41157;53.560;10.098;2024-03-02T08:32:43;22.30;;;13.33;;
55292;SDS011;41157;53.560;10.098;2024-03-02T08:35:10;23.20;;;12.70;;
55292;SDS011;41157;53.560;10.098;2024-03-02T08:37:39;22.57;;;13.30;;
55292;SDS011;41157;53.560;10.098;2024-03-02T08:40:08;24.73;;;13.33;;
55292;SDS011;41157;53.560;10.098;2024-03-02T08:42:35;24.10;;;13.77;;
55292;SDS011;41157;53.560;10.098;2024-03-02T08:45:02;23.87;;;13.57;;
55292;SDS011;41157;53.560;10.098;2024-03-02T08:47:30;22.10;;;13.43;;
55292;SDS011;41157;53.560;10.098;2024-03-02T08:49:57;22.27;;;13.43;;
55292;SDS011;41157;53.560;10.098;2024-03-02T08:52:24;26.90;;;14.37;;
55292;SDS011;41157;53.560;10.098;2024-03-02T08:54:52;25.83;;;13.57;;
55292;SDS011;41157;53.560;10.098;2024-03-02T08:57:19;23.90;;;14.07;;
55292;SDS011;41157;53.560;10.098;2024-03-02T08:59:46;23.70;;;14.07;;
55292;SDS011;41157;53.560;10.098;2024-03-02T09:02:14;27.40;;;13.70;;
55292;SDS011;41157;53.560;10.098;2024-03-02T09:04:41;25.03;;;14.13;;
55292;SDS011;41157;53.560;10.098;2024-03-02T09:07:08;26.73;;;14.07;;
55292;SDS011;41157;53.560;10.098;2024-03-02T09:09:35;25.40;;;14.13;;
55292;SDS011;41157;53.560;10.098;2024-03-02T09:12:05;23.60;;;13.80;;
55292;SDS011;41157;53.560;10.098;2024-03-02T09:14:32;24.40;;;15.00;;
55292;SDS011;41157;53.560;10.098;2024-03-02T09:16:59;30.03;;;13.50;;
55292;SDS011;41157;53.560;10.098;2024-03-02T09:19:26;20.47;;;12.70;;
55292;SDS011;41157;53.560;10.098;2024-03-02T09:21:53;21.43;;;12.00;;
55292;SDS011;41157;53.560;10.098;2024-03-02T09:24:21;21.33;;;12.20;;
55292;SDS011;41157;53.560;10.098;2024-03-02T09:26:48;23.00;;;11.63;;
55292;SDS011;41157;53.560;10.098;2024-03-02T09:29:16;22.15;;;12.18;;
55292;SDS011;41157;53.560;10.098;2024-03-02T09:31:45;21.40;;;11.93;;
55292;SDS011;41157;53.560;10.098;2024-03-02T09:34:12;16.15;;;11.13;;
55292;SDS011;41157;53.560;10.098;2024-03-02T09:36:39;20.10;;;11.88;;
55292;SDS011;41157;53.560;10.098;2024-03-02T09:39:07;17.92;;;12.00;;
55292;SDS011;41157;53.560;10.098;2024-03-02T09:41:34;13.73;;;10.27;;
55292;SDS011;41157;53.560;10.098;2024-03-02T09:44:02;18.73;;;11.30;;
55292;SDS011;41157;53.560;10.098;2024-03-02T09:46:30;17.00;;;10.70;;
55292;SDS011;41157;53.560;10.098;2024-03-02T09:48:57;16.40;;;11.70;;
55292;SDS011;41157;53.560;10.098;2024-03-02T09:51:24;15.50;;;10.60;;
55292;SDS011;41157;53.560;10.098;2024-03-02T09:53:51;17.58;;;10.68;;
55292;SDS011;41157;53.560;10.098;2024-03-02T09:56:19;14.95;;;10.25;;
55292;SDS011;41157;53.560;10.098;2024-03-02T09:58:46;16.27;;;10.13;;
55292;SDS011;41157;53.560;10.098;2024-03-02T10:01:13;18.90;;;11.02;;
55292;SDS011;41157;53.560;10.098;2024-03-02T10:03:41;15.50;;;10.07;;
55292;SDS011;41157;53.560;10.098;2024-03-02T10:06:18;18.50;;;10.27;;
55292;SDS011;41157;53.560;10.098;2024-03-02T10:08:45;14.73;;;10.45;;
55292;SDS011;41157;53.560;10.098;2024-03-02T10:11:19;14.55;;;9.88;;
55292;SDS011;41157;53.560;10.098;2024-03-02T10:13:54;14.10;;;9.57;;
55292;SDS011;41157;53.560;10.098;2024-03-02T10:16:33;15.40;;;9.45;;
55292;SDS011;41157;53.560;10.098;2024-03-02T10:19:06;13.10;;;8.88;;
55292;SDS011;41157;53.560;10.098;2024-03-02T10:21:41;13.63;;;9.68;;
55292;SDS011;41157;53.560;10.098;2024-03-02T10:24:09;16.25;;;8.82;;
55292;SDS011;41157;53.560;10.098;2024-03-02T10:26:36;14.40;;;9.73;;
55292;SDS011;41157;53.560;10.098;2024-03-02T10:29:03;14.50;;;8.63;;
55292;SDS011;41157;53.560;10.098;2024-03-02T10:31:30;12.55;;;9.05;;
55292;SDS011;41157;53.560;10.098;2024-03-02T10:33:57;14.98;;;9.07;;
55292;SDS011;41157;53.560;10.098;2024-03-02T10:36:26;15.85;;;9.00;;
55292;SDS011;41157;53.560;10.098;2024-03-02T10:38:53;12.68;;;8.65;;
55292;SDS011;41157;53.560;10.098;2024-03-02T10:41:20;12.02;;;8.73;;
55292;SDS011;41157;53.560;10.098;2024-03-02T10:43:50;11.95;;;7.68;;
55292;SDS011;41157;53.560;10.098;2024-03-02T10:46:20;13.13;;;8.68;;
55292;SDS011;41157;53.560;10.098;2024-03-02T10:48:49;12.60;;;7.85;;
55292;SDS011;41157;53.560;10.098;2024-03-02T10:51:16;12.43;;;8.00;;
55292;SDS011;41157;53.560;10.098;2024-03-02T10:53:44;11.73;;;7.95;;
55292;SDS011;41157;53.560;10.098;2024-03-02T10:56:11;17.58;;;8.32;;
55292;SDS011;41157;53.560;10.098;2024-03-02T10:58:42;10.85;;;7.65;;
55292;SDS011;41157;53.560;10.098;2024-03-02T11:01:09;11.73;;;8.15;;
55292;SDS011;41157;53.560;10.098;2024-03-02T11:03:37;11.63;;;7.63;;
55292;SDS011;41157;53.560;10.098;2024-03-02T11:06:06;10.02;;;7.32;;
55292;SDS011;41157;53.560;10.098;2024-03-02T11:08:35;11.85;;;7.53;;
55292;SDS011;41157;53.560;10.098;2024-03-02T11:11:07;10.95;;;7.45;;
55292;SDS011;41157;53.560;10.098;2024-03-02T11:13:38;13.32;;;7.53;;
55292;SDS011;41157;53.560;10.098;2024-03-02T11:16:09;10.77;;;7.38;;
55292;SDS011;41157;53.560;10.098;2024-03-02T11:18:39;12.32;;;7.97;;
55292;SDS011;41157;53.560;10.098;2024-03-02T11:21:07;11.77;;;7.45;;
55292;SDS011;41157;53.560;10.098;2024-03-02T11:23:34;12.75;;;7.80;;
55292;SDS011;41157;53.560;10.098;2024-03-02T11:29:08;11.50;;;7.10;;
55292;SDS011;41157;53.560;10.098;2024-03-02T11:34:17;11.10;;;7.50;;
55292;SDS011;41157;53.560;10.098;2024-03-02T11:36:44;10.95;;;7.65;;
55292;SDS011;41157;53.560;10.098;2024-03-02T11:39:11;14.68;;;7.78;;
55292;SDS011;41157;53.560;10.098;2024-03-02T11:41:38;15.75;;;7.43;;
55292;SDS011;41157;53.560;10.098;2024-03-02T11:44:06;15.75;;;7.25;;
55292;SDS011;41157;53.560;10.098;2024-03-02T11:46:38;12.38;;;6.60;;
55292;SDS011;41157;53.560;10.098;2024-03-02T11:49:06;10.45;;;7.93;;
55292;SDS011;41157;53.560;10.098;2024-03-02T11:51:34;13.07;;;7.75;;
55292;SDS011;41157;53.560;10.098;2024-03-02T11:54:01;10.65;;;7.05;;
55292;SDS011;41157;53.560;10.098;2024-03-02T11:56:29;10.80;;;6.82;;
55292;SDS011;41157;53.560;10.098;2024-03-02T11:58:58;12.33;;;6.57;;
55292;SDS011;41157;53.560;10.098;2024-03-02T12:01:25;15.40;;;7.03;;
55292;SDS011;41157;53.560;10.098;2024-03-02T12:03:53;9.67;;;6.47;;
55292;SDS011;41157;53.560;10.098;2024-03-02T12:06:21;11.83;;;6.43;;
55292;SDS011;41157;53.560;10.098;2024-03-02T12:08:52;12.97;;;6.30;;
55292;SDS011;41157;53.560;10.098;2024-03-02T12:11:19;9.63;;;6.47;;
55292;SDS011;41157;53.560;10.098;2024-03-02T12:13:53;10.67;;;6.30;;
55292;SDS011;41157;53.560;10.098;2024-03-02T12:16:22;10.80;;;7.37;;
55292;SDS011;41157;53.560;10.098;2024-03-02T12:18:49;12.03;;;7.47;;
55292;SDS011;41157;53.560;10.098;2024-03-02T12:21:18;11.93;;;7.30;;
55292;SDS011;41157;53.560;10.098;2024-03-02T12:23:45;16.00;;;8.70;;
55292;SDS011;41157;53.560;10.098;2024-03-02T12:26:12;13.03;;;7.60;;
55292;SDS011;41157;53.560;10.098;2024-03-02T12:28:39;11.50;;;7.40;;
55292;SDS011;41157;53.560;10.098;2024-03-02T12:31:06;12.40;;;7.80;;
55292;SDS011;41157;53.560;10.098;2024-03-02T12:33:33;13.00;;;7.80;;
55292;SDS011;41157;53.560;10.098;2024-03-02T12:36:00;12.33;;;8.13;;
55292;SDS011;41157;53.560;10.098;2024-03-02T12:38:28;13.80;;;7.80;;
55292;SDS011;41157;53.560;10.098;2024-03-02T12:40:55;13.67;;;8.10;;
55292;SDS011;41157;53.560;10.098;2024-03-02T12:43:23;12.93;;;7.57;;
55292;SDS011;41157;53.560;10.098;2024-03-02T12:45:50;13.77;;;7.33;;
55292;SDS011;41157;53.560;10.098;2024-03-02T12:48:17;11.80;;;7.70;;
55292;SDS011;41157;53.560;10.098;2024-03-02T12:50:44;14.83;;;7.80;;
55292;SDS011;41157;53.560;10.098;2024-03-02T12:53:14;15.43;;;7.67;;
55292;SDS011;41157;53.560;10.098;2024-03-02T12:55:43;12.23;;;7.40;;
55292;SDS011;41157;53.560;10.098;2024-03-02T12:58:15;13.47;;;7.73;;
55292;SDS011;41157;53.560;10.098;2024-03-02T13:00:43;9.43;;;6.80;;
55292;SDS011;41157;53.560;10.098;2024-03-02T13:03:10;11.83;;;6.83;;
55292;SDS011;41157;53.560;10.098;2024-03-02T13:05:38;14.00;;;7.00;;
55292;SDS011;41157;53.560;10.098;2024-03-02T13:08:06;13.13;;;8.00;;
55292;SDS011;41157;53.560;10.098;2024-03-02T13:10:33;10.87;;;7.43;;
55292;SDS011;41157;53.560;10.098;2024-03-02T13:13:01;13.80;;;7.40;;
55292;SDS011;41157;53.560;10.098;2024-03-02T13:15:28;12.10;;;6.70;;
55292;SDS011;41157;53.560;10.098;2024-03-02T13:17:58;11.20;;;6.63;;
55292;SDS011;41157;53.560;10.098;2024-03-02T13:20:29;10.47;;;6.03;;
55292;SDS011;41157;53.560;10.098;2024-03-02T13:22:57;12.73;;;6.63;;
55292;SDS011;41157;53.560;10.098;2024-03-02T13:25:24;13.83;;;7.20;;
55292;SDS011;41157;53.560;10.098;2024-03-02T13:27:51;11.13;;;7.23;;
55292;SDS011;41157;53.560;10.098;2024-03-02T13:30:20;14.87;;;7.77;;
55292;SDS011;41157;53.560;10.098;2024-03-02T13:32:47;11.53;;;7.17;;
55292;SDS011;41157;53.560;10.098;2024-03-02T13:35:14;13.23;;;6.60;;
55292;SDS011;41157;53.560;10.098;2024-03-02T13:37:41;9.17;;;6.33;;
55292;SDS011;41157;53.560;10.098;2024-03-02T13:40:08;16.73;;;7.43;;
55292;SDS011;41157;53.560;10.098;2024-03-02T13:42:38;15.90;;;7.50;;
55292;SDS011;41157;53.560;10.098;2024-03-02T13:45:06;14.50;;;6.97;;
55292;SDS011;41157;53.560;10.098;2024-03-02T13:47:34;12.13;;;7.03;;
55292;SDS011;41157;53.560;10.098;2024-03-02T13:50:01;17.43;;;8.03;;
55292;SDS011;41157;53.560;10.098;2024-03-02T13:52:30;11.97;;;7.03;;
55292;SDS011;41157;53.560;10.098;2024-03-02T13:54:57;13.33;;;7.20;;
55292;SDS011;41157;53.560;10.098;2024-03-02T13:57:24;12.67;;;7.07;;
55292;SDS011;41157;53.560;10.098;2024-03-02T13:59:51;14.07;;;6.87;;
55292;SDS011;41157;53.560;10.098;2024-03-02T14:02:19;11.50;;;7.13;;
55292;SDS011;41157;53.560;10.098;2024-03-02T14:04:48;10.73;;;6.57;;
55292;SDS011;41157;53.560;10.098;2024-03-02T14:07:15;10.80;;;6.53;;
55292;SDS011;41157;53.560;10.098;2024-03-02T14:09:42;10.23;;;6.73;;
55292;SDS011;41157;53.560;10.098;2024-03-02T14:12:10;11.60;;;7.10;;
55292;SDS011;41157;53.560;10.098;2024-03-02T14:14:38;10.63;;;6.83;;
55292;SDS011;41157;53.560;10.098;2024-03-02T14:17:05;12.33;;;6.70;;
55292;SDS011;41157;53.560;10.098;2024-03-02T14:19:37;12.23;;;7.03;;
55292;SDS011;41157;53.560;10.098;2024-03-02T14:22:05;15.67;;;7.73;;